createdAt,value
2023-01-11T00:00:46.718Z,94.94
2023-01-11T00:03:19.151Z,94.90
2023-01-11T00:05:48.828Z,94.84
2023-01-11T00:08:18.974Z,94.94
2023-01-11T00:10:48.798Z,94.78
2023-01-11T00:13:19.402Z,94.78
2023-01-11T00:15:49.286Z,94.60
2023-01-11T00:18:18.975Z,94.80
2023-01-11T00:20:49.064Z,94.68
2023-01-11T00:23:18.182Z,94.62
2023-01-11T00:25:47.556Z,94.56
2023-01-11T00:28:16.836Z,94.59
2023-01-11T00:30:48.403Z,94.63
2023-01-11T00:33:18.417Z,94.78
2023-01-11T00:35:47.843Z,94.82
2023-01-11T00:38:37.519Z,94.80
2023-01-11T00:41:23.204Z,94.69
2023-01-11T00:44:11.836Z,94.80
2023-01-11T00:46:59.600Z,94.87
2023-01-11T00:49:29.356Z,94.91
2023-01-11T00:51:58.745Z,94.97
2023-01-11T00:54:27.960Z,94.92
2023-01-11T00:56:57.395Z,94.86
2023-01-11T00:59:27.051Z,94.93
2023-01-11T01:01:57.346Z,95.01
2023-01-11T01:04:26.534Z,95.05
2023-01-11T01:06:58.314Z,94.85
2023-01-11T01:09:27.976Z,94.91
2023-01-11T01:11:57.214Z,94.99
2023-01-11T01:14:28.361Z,95.03
2023-01-11T01:17:00.126Z,95.06
2023-01-11T01:19:30.691Z,95.15
2023-01-11T01:22:01.057Z,95.12
2023-01-11T01:24:32.207Z,95.16
2023-01-11T01:27:05.060Z,95.26
2023-01-11T01:29:39.312Z,95.23
2023-01-11T01:32:10.954Z,95.23
2023-01-11T01:34:41.350Z,95.20
2023-01-11T01:37:12.706Z,95.18
2023-01-11T01:39:41.932Z,95.18
2023-01-11T01:42:15.487Z,95.24
2023-01-11T01:45:10.533Z,95.29
2023-01-11T01:47:45.837Z,95.26
2023-01-11T01:50:20.912Z,95.24
2023-01-11T01:52:54.518Z,95.27
2023-01-11T01:55:28.735Z,95.32
2023-01-11T01:58:01.671Z,95.36
2023-01-11T02:00:31.643Z,95.38
2023-01-11T02:03:02.567Z,95.42
2023-01-11T02:05:31.810Z,95.32
2023-01-11T02:08:06.677Z,95.39
2023-01-11T02:10:37.939Z,95.43
2023-01-11T02:13:14.111Z,95.47
2023-01-11T02:15:43.813Z,95.42
2023-01-11T02:18:14.330Z,95.46
2023-01-11T02:20:59.407Z,95.50
2023-01-11T02:24:22.007Z,95.49
2023-01-11T02:27:19.279Z,95.53
2023-01-11T02:30:03.373Z,95.47
2023-01-11T02:32:42.076Z,95.52
2023-01-11T02:35:20.935Z,95.54
2023-01-11T02:38:02.206Z,95.52
2023-01-11T02:40:45.341Z,95.48
2023-01-11T02:43:39.536Z,95.45
2023-01-11T02:46:16.933Z,95.43
2023-01-11T02:48:54.777Z,95.34
2023-01-11T02:51:32.498Z,95.41
2023-01-11T02:54:07.498Z,95.45
2023-01-11T02:56:42.171Z,95.50
2023-01-11T02:59:15.917Z,95.56
2023-01-11T03:01:47.074Z,95.55
2023-01-11T03:04:30.095Z,95.58
2023-01-11T03:07:15.294Z,95.60
2023-01-11T03:09:56.487Z,95.59
2023-01-11T03:12:57.403Z,95.59
2023-01-11T03:15:55.409Z,95.48
2023-01-11T03:18:39.875Z,95.49
2023-01-11T03:21:24.210Z,95.56
2023-01-11T03:24:05.361Z,95.57
2023-01-11T03:26:45.021Z,95.54
2023-01-11T03:29:23.026Z,95.54
2023-01-11T03:31:57.908Z,95.55
2023-01-11T03:34:33.721Z,95.57
2023-01-11T03:37:08.647Z,95.59
2023-01-11T03:39:44.923Z,95.54
2023-01-11T03:42:19.626Z,95.50
2023-01-11T03:44:58.893Z,95.53
2023-01-11T03:47:31.221Z,95.40
2023-01-11T03:50:03.949Z,95.39
2023-01-11T03:52:39.467Z,95.45
2023-01-11T03:55:13.420Z,95.44
2023-01-11T03:57:47.189Z,95.43
2023-01-11T04:00:17.802Z,95.43
2023-01-11T04:02:47.109Z,95.47
2023-01-11T04:05:16.638Z,95.50
2023-01-11T04:07:45.930Z,95.49
2023-01-11T04:10:15.886Z,95.50
2023-01-11T04:12:47.762Z,95.56
2023-01-11T04:15:18.163Z,95.59
2023-01-11T04:17:47.946Z,95.55
2023-01-11T04:20:17.481Z,95.58
2023-01-11T04:22:46.599Z,95.60
2023-01-11T04:25:17.881Z,95.60
2023-01-11T04:27:47.289Z,95.52
2023-01-11T04:30:17.882Z,95.56
2023-01-11T04:32:47.340Z,95.61
2023-01-11T04:35:18.063Z,95.62
2023-01-11T04:37:50.759Z,95.62
2023-01-11T04:40:20.341Z,95.65
2023-01-11T04:42:49.746Z,95.66
2023-01-11T04:45:19.492Z,95.68
2023-01-11T04:48:05.860Z,95.66
2023-01-11T04:50:35.449Z,95.64
2023-01-11T04:53:07.359Z,95.66
2023-01-11T04:55:39.394Z,95.63
2023-01-11T04:58:18.203Z,95.62
2023-01-11T05:00:49.044Z,95.66
2023-01-11T05:03:19.132Z,95.65
2023-01-11T05:05:57.588Z,95.67
2023-01-11T05:08:28.420Z,95.65
2023-01-11T05:10:59.878Z,95.69
2023-01-11T05:13:42.824Z,95.67
2023-01-11T05:16:18.509Z,95.69
2023-01-11T05:18:55.631Z,95.76
2023-01-11T05:21:27.929Z,95.73
2023-01-11T05:24:01.376Z,95.76
2023-01-11T05:26:34.738Z,95.75
2023-01-11T05:29:06.470Z,95.79
2023-01-11T05:31:47.769Z,95.81
2023-01-11T05:34:20.873Z,95.78
2023-01-11T05:36:50.441Z,95.80
2023-01-11T05:39:23.744Z,95.81
2023-01-11T05:41:52.981Z,95.78
2023-01-11T05:44:41.387Z,95.78
2023-01-11T05:47:19.685Z,95.85
2023-01-11T05:49:50.330Z,95.87
2023-01-11T05:52:20.340Z,95.89
2023-01-11T05:54:50.421Z,95.88
2023-01-11T05:57:24.689Z,95.92
2023-01-11T05:59:56.464Z,95.94
2023-01-11T06:02:27.947Z,95.93
2023-01-11T06:04:57.618Z,95.90
2023-01-11T06:07:29.394Z,95.88
2023-01-11T06:10:00.714Z,95.88
2023-01-11T06:12:31.446Z,95.90
2023-01-11T06:15:02.184Z,95.92
2023-01-11T06:17:32.370Z,95.93
2023-01-11T06:20:02.065Z,95.91
2023-01-11T06:22:31.307Z,95.88
2023-01-11T06:25:00.332Z,95.81
2023-01-11T06:27:33.700Z,95.79
2023-01-11T06:30:03.220Z,95.76
2023-01-11T06:32:33.067Z,95.68
2023-01-11T06:35:01.935Z,95.66
2023-01-11T06:37:31.634Z,95.60
2023-01-11T06:40:00.766Z,95.52
2023-01-11T06:42:30.574Z,95.48
2023-01-11T06:45:00.144Z,95.47
2023-01-11T06:47:32.608Z,95.43
2023-01-11T06:50:01.806Z,95.40
2023-01-11T06:52:34.429Z,95.41
2023-01-11T06:55:04.177Z,95.39
2023-01-11T06:57:33.933Z,95.34
2023-01-11T07:00:04.390Z,95.31
2023-01-11T07:02:34.386Z,95.26
2023-01-11T07:05:03.879Z,95.26
2023-01-11T07:07:33.657Z,95.21
2023-01-11T07:10:02.929Z,95.18
2023-01-11T07:12:33.510Z,95.15
2023-01-11T07:15:04.867Z,95.13
2023-01-11T07:17:36.749Z,95.04
2023-01-11T07:20:09.030Z,95.06
2023-01-11T07:22:39.383Z,95.07
2023-01-11T07:25:10.049Z,95.01
2023-01-11T07:27:41.838Z,94.98
2023-01-11T07:30:14.428Z,94.96
2023-01-11T07:32:43.893Z,94.90
2023-01-11T07:35:13.500Z,94.88
2023-01-11T07:37:45.357Z,94.88
2023-01-11T07:40:21.996Z,94.80
2023-01-11T07:43:11.647Z,94.74
2023-01-11T07:45:46.206Z,94.72
2023-01-11T07:48:20.812Z,94.60
2023-01-11T07:50:52.258Z,94.36
2023-01-11T07:53:26.145Z,94.22
2023-01-11T07:55:57.431Z,94.11
2023-01-11T07:58:27.281Z,93.98
2023-01-11T08:01:00.495Z,93.88
2023-01-11T08:03:29.784Z,93.84
2023-01-11T08:05:59.487Z,93.69
2023-01-11T08:08:28.682Z,93.53
2023-01-11T08:11:16.831Z,93.41
2023-01-11T08:14:05.321Z,93.42
2023-01-11T08:16:42.935Z,93.17
2023-01-11T08:19:13.268Z,93.21
2023-01-11T08:21:44.314Z,93.26
2023-01-11T08:24:14.363Z,92.99
2023-01-11T08:26:48.764Z,92.95
2023-01-11T08:29:18.839Z,92.87
2023-01-11T08:31:49.158Z,92.88
2023-01-11T08:34:19.044Z,92.77
2023-01-11T08:36:48.341Z,92.38
2023-01-11T08:39:18.015Z,92.37
2023-01-11T08:41:47.283Z,92.24
2023-01-11T08:44:22.277Z,92.42
2023-01-11T08:47:02.799Z,92.55
2023-01-11T08:49:32.365Z,92.36
2023-01-11T08:52:01.681Z,92.44
2023-01-11T08:54:31.171Z,92.46
2023-01-11T08:57:00.549Z,92.52
2023-01-11T08:59:30.049Z,92.49
2023-01-11T09:01:59.518Z,92.45
2023-01-11T09:04:29.160Z,92.53
2023-01-11T09:06:58.426Z,92.62
2023-01-11T09:09:28.036Z,92.73
2023-01-11T09:11:59.805Z,92.63
2023-01-11T09:14:30.160Z,92.59
2023-01-11T09:16:59.602Z,92.64
2023-01-11T09:19:28.896Z,92.61
2023-01-11T09:22:00.037Z,92.60
2023-01-11T09:24:30.571Z,92.63
2023-01-11T09:27:01.247Z,92.63
2023-01-11T09:29:30.523Z,92.62
2023-01-11T09:31:59.682Z,92.66
2023-01-11T09:34:28.882Z,92.68
2023-01-11T09:37:00.462Z,92.64
2023-01-11T09:39:30.009Z,92.52
2023-01-11T09:42:30.983Z,92.42
2023-01-11T09:45:13.388Z,92.42
2023-01-11T09:47:48.374Z,92.61
2023-01-11T09:50:23.199Z,92.50
2023-01-11T09:52:56.580Z,92.43
2023-01-11T09:55:37.634Z,92.43
2023-01-11T09:58:28.885Z,92.24
2023-01-11T10:01:06.888Z,92.33
2023-01-11T10:04:07.712Z,92.34
2023-01-11T10:06:53.072Z,92.22
2023-01-11T10:18:22.461Z,92.04
2023-01-11T10:19:24.850Z,91.84
2023-01-11T10:21:50.225Z,91.93
2023-01-11T10:24:27.009Z,91.69
2023-01-11T10:27:01.657Z,91.74
2023-01-11T10:29:57.202Z,91.61
2023-01-11T10:32:54.815Z,91.55
2023-01-11T10:35:45.134Z,91.47
2023-01-11T10:38:47.729Z,90.81
2023-01-11T10:41:32.806Z,90.26
2023-01-11T10:44:13.163Z,89.90
2023-01-11T10:46:48.532Z,90.12
2023-01-11T10:49:43.657Z,89.84
2023-01-11T10:52:29.045Z,89.90
2023-01-11T10:55:03.902Z,89.70
2023-01-11T10:57:59.410Z,89.81
2023-01-11T11:00:39.932Z,89.15
2023-01-11T11:03:36.309Z,89.25
2023-01-11T11:06:14.474Z,89.13
2023-01-11T11:09:07.551Z,88.67
2023-01-11T11:11:52.635Z,88.64
2023-01-11T11:14:30.234Z,88.60
2023-01-11T11:17:12.112Z,88.39
2023-01-11T11:19:42.024Z,89.06
2023-01-11T11:22:13.186Z,88.82
2023-01-11T11:24:49.725Z,88.15
2023-01-11T11:27:27.321Z,87.88
2023-01-11T11:29:58.180Z,87.91
2023-01-11T11:32:31.307Z,88.19
2023-01-11T11:35:01.069Z,88.18
2023-01-11T11:37:35.494Z,88.35
2023-01-11T11:40:05.776Z,88.21
2023-01-11T11:42:35.235Z,88.10
2023-01-11T11:45:17.765Z,88.25
2023-01-11T11:48:02.913Z,88.43
2023-01-11T11:50:44.713Z,88.44
2023-01-11T11:53:25.519Z,88.10
2023-01-11T11:55:56.354Z,87.98
2023-01-11T11:58:27.132Z,88.27
2023-01-11T12:00:57.455Z,88.26
2023-01-11T12:03:30.046Z,88.12
2023-01-11T12:06:01.668Z,87.98
2023-01-11T12:08:33.956Z,88.08
2023-01-11T12:11:07.051Z,88.17
2023-01-11T12:13:39.786Z,87.74
2023-01-11T12:16:25.293Z,87.82
2023-01-11T12:18:58.549Z,87.96
2023-01-11T12:21:30.645Z,87.98
2023-01-11T12:24:18.010Z,88.09
2023-01-11T12:27:05.663Z,88.07
2023-01-11T12:29:59.435Z,88.23
2023-01-11T12:32:59.515Z,88.33
2023-01-11T12:35:39.441Z,88.18
2023-01-11T12:38:39.814Z,88.32
2023-01-11T12:41:50.719Z,88.31
2023-01-11T12:44:37.432Z,88.32
2023-01-11T12:47:41.547Z,88.27
2023-01-11T12:50:20.648Z,88.36
2023-01-11T12:53:09.821Z,88.49
2023-01-11T12:56:10.243Z,88.56
2023-01-11T12:58:45.182Z,88.58
2023-01-11T13:01:39.502Z,88.67
2023-01-11T13:04:33.349Z,88.64
2023-01-11T13:07:11.763Z,88.84
2023-01-11T13:09:54.856Z,88.82
2023-01-11T13:12:32.148Z,88.68
2023-01-11T13:15:17.421Z,88.67
2023-01-11T13:17:52.943Z,88.57
2023-01-11T13:20:58.562Z,88.51
2023-01-11T13:23:35.624Z,88.44
2023-01-11T13:26:15.955Z,88.58
2023-01-11T13:28:53.696Z,88.68
2023-01-11T13:31:38.619Z,88.84
2023-01-11T13:34:18.799Z,88.89
2023-01-11T13:36:59.078Z,88.90
2023-01-11T13:39:44.567Z,88.94
2023-01-11T13:42:24.528Z,89.08
2023-01-11T13:45:07.327Z,89.10
2023-01-11T13:47:42.152Z,89.16
2023-01-11T13:50:21.601Z,89.23
2023-01-11T13:53:09.331Z,89.26
2023-01-11T13:55:52.586Z,89.32
2023-01-11T13:58:28.754Z,89.33
2023-01-11T14:01:07.559Z,89.31
2023-01-11T14:03:48.263Z,89.42
2023-01-11T14:06:42.355Z,89.46
2023-01-11T14:09:24.584Z,89.51
2023-01-11T14:12:05.382Z,89.62
2023-01-11T14:15:14.938Z,89.68
2023-01-11T14:18:16.735Z,89.78
2023-01-11T14:20:56.701Z,89.85
2023-01-11T14:23:32.907Z,89.94
2023-01-11T14:26:41.989Z,90.02
2023-01-11T14:29:30.911Z,89.97
2023-01-11T14:32:15.131Z,90.09
2023-01-11T14:35:13.298Z,90.15
2023-01-11T14:38:12.835Z,90.27
2023-01-11T14:40:56.340Z,90.33
2023-01-11T14:43:47.444Z,90.38
2023-01-11T14:46:48.531Z,90.39
2023-01-11T14:49:31.291Z,90.46
2023-01-11T14:52:04.618Z,90.48
2023-01-11T14:54:44.900Z,90.45
2023-01-11T14:57:37.322Z,90.57
2023-01-11T15:00:59.921Z,90.59
2023-01-11T15:03:56.124Z,90.60
2023-01-11T15:06:30.947Z,90.70
2023-01-11T15:09:00.468Z,90.94
2023-01-11T15:11:37.020Z,90.96
2023-01-11T15:14:28.770Z,90.98
2023-01-11T15:17:19.571Z,91.01
2023-01-11T15:19:51.194Z,91.10
2023-01-11T15:22:31.854Z,91.16
2023-01-11T15:25:03.618Z,91.15
2023-01-11T15:27:36.651Z,91.17
2023-01-11T15:30:28.974Z,91.19
2023-01-11T15:36:08.133Z,91.44
2023-01-11T15:38:51.023Z,91.63
2023-01-11T15:42:04.373Z,91.64
2023-01-11T15:45:04.041Z,91.49
2023-01-11T15:47:58.214Z,91.60
2023-01-11T15:51:01.167Z,91.74
2023-01-11T15:54:06.583Z,91.84
2023-01-11T15:56:58.154Z,91.82
2023-01-11T16:00:03.914Z,91.83
2023-01-11T16:03:17.131Z,91.88
2023-01-11T16:06:00.221Z,92.00
2023-01-11T16:08:40.374Z,91.88
2023-01-11T16:11:24.154Z,91.74
2023-01-11T16:14:15.582Z,91.89
2023-01-11T16:16:53.069Z,91.71
2023-01-11T16:19:30.345Z,91.64
2023-01-11T16:22:06.070Z,91.67
2023-01-11T16:24:46.552Z,91.64
2023-01-11T16:27:29.190Z,91.49
2023-01-11T16:30:03.155Z,91.52
2023-01-11T16:32:36.176Z,91.49
2023-01-11T16:35:23.879Z,91.47
2023-01-11T16:38:01.707Z,91.38
2023-01-11T16:40:37.944Z,91.35
2023-01-11T16:43:22.042Z,91.34
2023-01-11T16:45:57.218Z,91.38
2023-01-11T16:48:32.163Z,91.30
2023-01-11T16:51:07.908Z,91.27
2023-01-11T16:53:44.378Z,91.22
2023-01-11T16:56:22.014Z,91.20
2023-01-11T16:59:20.060Z,91.13
2023-01-11T17:01:57.377Z,91.03
2023-01-11T17:04:34.491Z,90.99
2023-01-11T17:07:16.352Z,90.85
2023-01-11T17:09:49.359Z,90.78
2023-01-11T17:12:32.268Z,90.65
2023-01-11T17:15:20.791Z,90.58
2023-01-11T17:17:56.209Z,90.46
2023-01-11T17:20:33.862Z,90.43
2023-01-11T17:23:08.234Z,90.31
2023-01-11T17:25:44.849Z,90.33
2023-01-11T17:28:27.525Z,90.28
2023-01-11T17:31:02.068Z,90.23
2023-01-11T17:33:36.159Z,90.06
2023-01-11T17:36:08.343Z,90.05
2023-01-11T17:38:42.214Z,90.01
2023-01-11T17:41:31.597Z,89.84
2023-01-11T17:44:23.136Z,89.57
2023-01-11T17:46:56.941Z,89.44
2023-01-11T17:49:33.724Z,89.51
2023-01-11T17:52:23.699Z,89.29
2023-01-11T17:55:14.385Z,89.22
2023-01-11T17:58:05.505Z,89.26
2023-01-11T18:00:38.823Z,89.13
2023-01-11T18:03:18.712Z,89.09
2023-01-11T18:05:51.543Z,88.94
2023-01-11T18:08:25.143Z,88.95
2023-01-11T18:10:59.791Z,89.00
2023-01-11T18:13:40.640Z,88.98
2023-01-11T18:16:21.202Z,88.89
2023-01-11T18:18:56.855Z,88.89
2023-01-11T18:21:54.813Z,88.77
2023-01-11T18:24:46.268Z,88.91
2023-01-11T18:27:26.259Z,88.92
2023-01-11T18:30:11.576Z,88.92
2023-01-11T18:32:45.933Z,88.80
2023-01-11T18:35:20.884Z,88.72
2023-01-11T18:37:54.579Z,88.57
2023-01-11T18:40:31.370Z,88.38
2023-01-11T18:43:04.129Z,88.39
2023-01-11T18:45:37.296Z,88.32
2023-01-11T18:48:15.667Z,88.43
2023-01-11T18:50:49.570Z,88.53
2023-01-11T18:53:23.905Z,88.77
2023-01-11T18:55:58.059Z,88.92
2023-01-11T18:58:31.449Z,89.05
2023-01-11T19:01:06.022Z,89.17
2023-01-11T19:03:41.074Z,89.30
2023-01-11T19:06:19.822Z,89.38
2023-01-11T19:08:52.296Z,89.48
2023-01-11T19:11:29.891Z,89.55
2023-01-11T19:14:03.636Z,89.55
2023-01-11T19:16:43.992Z,89.51
2023-01-11T19:19:17.458Z,89.42
2023-01-11T19:21:50.633Z,89.33
2023-01-11T19:24:25.356Z,89.22
2023-01-11T19:26:59.234Z,89.14
2023-01-11T19:29:30.945Z,89.05
2023-01-11T19:32:03.741Z,88.98
2023-01-11T19:34:37.463Z,88.87
2023-01-11T19:37:10.890Z,88.89
2023-01-11T19:39:43.664Z,88.88
2023-01-11T19:42:16.450Z,88.91
2023-01-11T19:44:49.280Z,88.87
2023-01-11T19:47:22.673Z,88.92
2023-01-11T19:49:59.776Z,88.83
2023-01-11T19:52:34.251Z,88.84
2023-01-11T19:55:07.654Z,88.89
2023-01-11T19:57:41.876Z,88.90
2023-01-11T20:00:17.448Z,88.95
2023-01-11T20:02:49.986Z,89.00
2023-01-11T20:05:22.696Z,89.10
2023-01-11T20:07:56.445Z,89.17
2023-01-11T20:10:29.026Z,89.27
2023-01-11T20:13:01.930Z,89.33
2023-01-11T20:15:34.446Z,89.49
2023-01-11T20:18:07.399Z,89.63
2023-01-11T20:20:40.734Z,89.66
2023-01-11T20:23:13.551Z,89.78
2023-01-11T20:25:46.058Z,89.98
2023-01-11T20:28:20.570Z,90.04
2023-01-11T20:30:53.684Z,90.13
2023-01-11T20:33:28.880Z,90.21
2023-01-11T20:35:59.856Z,90.39
2023-01-11T20:38:32.896Z,90.45
2023-01-11T20:41:14.679Z,90.52
2023-01-11T20:43:53.560Z,90.66
2023-01-11T20:46:40.428Z,90.64
2023-01-11T20:49:21.333Z,90.67
2023-01-11T20:52:03.388Z,90.62
2023-01-11T20:54:37.287Z,90.64
2023-01-11T20:57:12.787Z,90.59
2023-01-11T20:59:46.232Z,90.58
2023-01-11T21:02:18.649Z,90.54
2023-01-11T21:04:51.378Z,90.47
2023-01-11T21:07:34.190Z,90.44
2023-01-11T21:10:08.375Z,90.41
2023-01-11T21:12:40.861Z,90.35
2023-01-11T21:15:14.551Z,90.33
2023-01-11T21:17:46.920Z,90.31
2023-01-11T21:20:20.185Z,90.23
2023-01-11T21:22:52.462Z,90.25
2023-01-11T21:25:31.253Z,90.20
2023-01-11T21:28:04.242Z,90.18
2023-01-11T21:30:37.758Z,90.14
2023-01-11T21:33:10.173Z,90.03
2023-01-11T21:35:43.686Z,89.96
2023-01-11T21:38:16.520Z,89.94
2023-01-11T21:40:49.736Z,89.83
2023-01-11T21:43:22.127Z,89.84
2023-01-11T21:46:04.450Z,89.81
2023-01-11T21:48:37.237Z,89.75
2023-01-11T21:51:11.535Z,89.79
2023-01-11T21:53:43.803Z,89.73
2023-01-11T21:56:16.624Z,89.62
2023-01-11T21:58:50.544Z,89.57
2023-01-11T22:01:25.186Z,89.50
2023-01-11T22:04:15.834Z,89.49
2023-01-11T22:06:51.448Z,89.41
2023-01-11T22:09:27.430Z,89.43
2023-01-11T22:12:05.069Z,89.36
2023-01-11T22:14:37.365Z,89.25
2023-01-11T22:17:09.878Z,89.06
2023-01-11T22:19:42.232Z,89.03
2023-01-11T22:22:14.696Z,88.97
2023-01-11T22:24:47.436Z,88.95
2023-01-11T22:27:25.545Z,88.85
2023-01-11T22:30:00.257Z,88.89
2023-01-11T22:32:34.440Z,88.76
2023-01-11T22:35:07.319Z,88.52
2023-01-11T22:37:39.858Z,88.61
2023-01-11T22:40:15.312Z,88.53
2023-01-11T22:42:47.977Z,88.60
2023-01-11T22:45:20.592Z,88.55
2023-01-11T22:48:00.996Z,88.61
2023-01-11T22:50:33.504Z,88.44
2023-01-11T22:53:06.352Z,88.44
2023-01-11T22:55:38.650Z,88.42
2023-01-11T22:58:11.541Z,88.54
2023-01-11T23:00:44.108Z,88.56
2023-01-11T23:03:18.367Z,88.62
2023-01-11T23:05:51.184Z,88.68
2023-01-11T23:08:23.822Z,88.65
2023-01-11T23:11:02.115Z,88.71
2023-01-11T23:14:01.826Z,88.71
2023-01-11T23:16:37.819Z,88.74
2023-01-11T23:19:12.578Z,88.95
2023-01-11T23:21:46.205Z,89.14
2023-01-11T23:24:19.752Z,89.47
2023-01-11T23:26:53.151Z,89.75
2023-01-11T23:29:27.020Z,89.94
2023-01-11T23:32:03.998Z,90.25
2023-01-11T23:34:36.669Z,90.53
2023-01-11T23:37:09.016Z,90.94
2023-01-11T23:39:41.852Z,91.10
2023-01-11T23:42:32.396Z,91.32
2023-01-11T23:45:07.030Z,91.53
2023-01-11T23:47:39.339Z,91.76
2023-01-11T23:50:12.673Z,92.03
2023-01-11T23:52:45.179Z,92.25
2023-01-11T23:55:18.082Z,92.45
2023-01-11T23:58:09.717Z,92.44
